AKDT,Max TemperatureF,Mean TemperatureF,Min TemperatureF,Max Dew PointF,MeanDew PointF,Min DewpointF,Max Humidity, Mean Humidity, Min Humidity, Max Sea Level PressureIn, Mean Sea Level PressureIn, Min Sea Level PressureIn, Max VisibilityMiles, Mean VisibilityMiles, Min VisibilityMiles, Max Wind SpeedMPH, Mean Wind SpeedMPH, Max Gust SpeedMPH,PrecipitationIn, CloudCover, Events, WindDirDegrees
2014-3-1,39,32,26,32,28,21,89,80,70,29.99,29.97,29.96,10,10,10,7,3,,0.00,3,,277
2014-3-2,36,33,30,31,28,26,93,84,75,29.96,29.88,29.83,10,7,0,7,2,,0.00,6,Fog,265
2014-3-3,39,36,32,29,28,26,82,75,63,29.85,29.83,29.81,10,10,10,8,4,,0.00,6,,64
2014-3-4,41,38,35,28,26,24,70,64,59,29.86,29.83,29.78,10,10,10,13,5,20,0.00,8,Rain,176
2014-3-5,37,34,32,29,26,22,85,73,57,29.78,29.73,29.67,10,8,1,13,7,,0.03,8,Rain-Snow,246
2014-3-6,34,30,26,25,21,14,79,66,56,29.69,29.67,29.65,10,10,10,15,6,,0.00,5,,52
2014-3-7,35,27,19,23,15,7,78,61,42,29.69,29.50,29.26,10,10,10,13,4,18,0.00,0,,53
2014-3-8,32,24,16,10,7,2,68,48,37,29.25,29.13,29.06,10,10,10,9,5,,0.00,0,,49
2014-3-9,33,24,15,17,9,4,63,51,32,29.41,29.27,29.12,10,10,10,12,4,,0.00,2,,13
2014-3-10,39,34,30,34,30,16,89,80,56,29.41,29.07,28.85,10,7,2,22,12,37,0.68,8,Rain-Snow,64
2014-3-11,43,38,34,39,34,30,93,87,76,29.16,29.00,28.89,10,9,3,13,6,,0.31,7,Rain,17
2014-3-12,37,32,28,33,26,16,87,74,48,29.52,29.33,29.16,10,6,1,30,11,48,0.07,8,Rain-Snow,168
2014-3-13,46,42,37,36,33,31,83,74,60,29.19,29.05,28.89,10,8,4,34,17,45,0.41,7,Rain-Snow,79
2014-3-14,43,30,19,34,20,8,86,72,60,29.58,29.12,28.75,10,5,0,32,14,43,0.16,8,Fog-Rain-Snow,236
2014-3-15,26,21,16,13,11,4,74,66,54,29.77,29.72,29.58,10,6,1,16,8,22,0.03,7,Snow,281
2014-3-16,37,26,14,25,16,4,67,59,50,29.73,29.58,29.45,10,10,10,20,8,28,0.00,6,,86
2014-3-17,39,36,33,32,30,25,89,79,57,29.69,29.59,29.47,10,6,0,16,4,25,0.17,8,Fog-Rain-Snow,62
2014-3-18,39,34,30,30,28,19,89,79,53,30.02,29.82,29.69,10,6,1,9,2,,0.06,6,Snow,2
2014-3-19,41,31,23,21,17,12,78,56,38,30.21,30.12,30.03,10,10,10,9,4,,0.00,0,,69
2014-3-20,42,31,21,23,17,12,71,53,39,30.24,30.22,30.20,10,10,10,13,5,,0.00,0,,52
2014-3-21,44,36,28,28,21,15,69,56,43,30.29,30.24,30.21,10,10,10,10,7,,0.00,3,,57
2014-3-22,44,37,30,24,19,15,61,50,35,30.44,30.37,30.29,10,10,10,10,6,,0.00,1,,58
2014-3-23,41,30,21,24,18,13,69,57,39,30.46,30.41,30.35,10,10,10,9,2,,0.00,0,,142
2014-3-24,41,31,21,23,17,14,74,58,40,30.34,30.17,29.95,10,10,10,8,3,,0.00,0,,248
2014-3-25,39,30,21,22,17,12,72,57,39,29.94,29.83,29.74,10,10,10,7,1,,0.00,2,,56
2014-3-26,43,34,27,26,18,9,69,51,27,29.79,29.75,29.73,10,10,10,6,1,,0.00,6,,181
2014-3-27,41,34,28,26,22,18,75,61,47,29.84,29.82,29.80,10,10,10,10,5,,0.00,2,,99
2014-3-28,42,34,25,25,21,16,81,60,41,29.86,29.81,29.73,10,10,10,9,3,,0.00,1,,203
2014-3-29,43,34,24,19,16,12,75,50,29,29.88,29.77,29.73,10,10,10,10,2,,0.00,1,,39
2014-3-30,45,34,23,25,17,11,72,52,32,30.09,30.00,29.90,10,10,10,9,2,,0.00,0,,250
2014-3-31,45,34,24,21,17,14,65,51,30,30.12,30.07,29.99,10,10,10,8,2,,0.00,0,,115